createdAt,value
2023-03-02T00:01:55.626Z,1.61
2023-03-02T00:04:21.941Z,1.76
2023-03-02T00:06:48.244Z,1.56
2023-03-02T00:09:14.542Z,1.48
2023-03-02T00:11:40.833Z,1.51
2023-03-02T00:14:07.142Z,1.70
2023-03-02T00:16:33.667Z,1.64
2023-03-02T00:19:00.189Z,1.59
2023-03-02T00:21:26.493Z,1.69
2023-03-02T00:23:52.799Z,1.70
2023-03-02T00:26:19.086Z,1.94
2023-03-02T00:28:45.398Z,1.81
2023-03-02T00:31:11.841Z,1.77
2023-03-02T00:33:38.158Z,1.76
2023-03-02T00:36:04.531Z,1.81
2023-03-02T00:38:30.871Z,1.73
2023-03-02T00:40:57.167Z,1.65
2023-03-02T00:43:23.489Z,1.63
2023-03-02T00:45:49.782Z,1.68
2023-03-02T00:48:16.081Z,1.53
2023-03-02T00:50:42.387Z,1.54
2023-03-02T00:53:08.705Z,1.58
2023-03-02T00:55:34.984Z,1.68
2023-03-02T00:58:01.283Z,1.54
2023-03-02T01:00:27.585Z,1.59
2023-03-02T01:02:53.912Z,1.58
2023-03-02T01:05:20.285Z,1.52
2023-03-02T01:07:46.596Z,1.68
2023-03-02T01:10:12.895Z,1.80
2023-03-02T01:12:39.209Z,2.02
2023-03-02T01:15:05.502Z,2.10
2023-03-02T01:17:31.819Z,1.96
2023-03-02T01:22:48.708Z,1.96
2023-03-02T01:25:15.009Z,1.91
2023-03-02T01:27:41.289Z,2.22
2023-03-02T01:30:07.597Z,2.02
2023-03-02T01:32:33.935Z,1.97
2023-03-02T01:35:00.283Z,2.37
2023-03-02T01:37:26.586Z,2.16
2023-03-02T01:39:52.885Z,2.19
2023-03-02T01:42:19.189Z,2.06
2023-03-02T01:44:45.563Z,2.22
2023-03-02T01:47:11.877Z,2.14
2023-03-02T01:49:38.165Z,2.05
2023-03-02T01:52:04.480Z,1.98
2023-03-02T01:54:30.791Z,2.03
2023-03-02T01:56:57.079Z,2.03
2023-03-02T01:59:23.415Z,1.95
2023-03-02T02:01:49.696Z,1.83
2023-03-02T02:04:16.094Z,1.93
2023-03-02T02:06:42.420Z,1.90
2023-03-02T02:09:08.709Z,2.00
2023-03-02T02:11:35.002Z,1.98
2023-03-02T02:14:01.327Z,2.06
2023-03-02T02:16:27.714Z,1.82
2023-03-02T02:18:54.050Z,1.73
2023-03-02T02:21:20.376Z,1.80
2023-03-02T02:23:46.664Z,1.97
2023-03-02T02:26:12.960Z,1.89
2023-03-02T02:28:39.268Z,1.99
2023-03-02T02:31:05.551Z,2.27
2023-03-02T02:33:31.841Z,2.33
2023-03-02T02:35:58.192Z,2.29
2023-03-02T02:38:24.560Z,2.58
2023-03-02T02:40:50.856Z,2.23
2023-03-02T02:43:17.168Z,2.60
2023-03-02T02:45:43.486Z,2.55
2023-03-02T02:48:09.800Z,2.63
2023-03-02T02:50:36.149Z,2.49
2023-03-02T02:53:02.456Z,2.63
2023-03-02T02:55:28.741Z,2.40
2023-03-02T02:57:55.030Z,2.54
2023-03-02T03:00:21.320Z,2.05
2023-03-02T03:02:47.614Z,2.25
2023-03-02T03:05:13.930Z,2.25
2023-03-02T03:07:40.221Z,1.86
2023-03-02T03:10:06.519Z,2.04
2023-03-02T03:12:32.831Z,2.34
2023-03-02T03:14:59.138Z,2.24
2023-03-02T03:17:25.436Z,1.94
2023-03-02T03:19:51.787Z,1.94
2023-03-02T03:22:18.081Z,2.31
2023-03-02T03:24:44.397Z,2.10
2023-03-02T03:27:10.720Z,1.96
2023-03-02T03:29:37.019Z,2.38
2023-03-02T03:32:03.350Z,2.35
2023-03-02T03:34:29.734Z,2.07
2023-03-02T03:36:56.028Z,2.19
2023-03-02T03:39:22.384Z,2.13
2023-03-02T03:41:48.720Z,2.43
2023-03-02T03:44:15.012Z,2.45
2023-03-02T03:46:41.301Z,2.46
2023-03-02T03:49:07.615Z,2.57
2023-03-02T03:51:33.898Z,2.22
2023-03-02T03:54:00.187Z,2.29
2023-03-02T03:56:26.516Z,2.44
2023-03-02T03:58:52.890Z,2.08
2023-03-02T04:01:19.317Z,2.15
2023-03-02T04:03:45.644Z,1.94
2023-03-02T04:06:11.933Z,2.03
2023-03-02T04:08:38.225Z,2.37
2023-03-02T04:11:04.543Z,2.42
2023-03-02T04:13:30.846Z,2.40
2023-03-02T04:15:57.170Z,2.21
2023-03-02T04:18:23.484Z,2.16
2023-03-02T04:20:49.783Z,2.34
2023-03-02T04:23:16.064Z,2.19
2023-03-02T04:25:42.357Z,2.45
2023-03-02T04:28:08.673Z,2.32
2023-03-02T04:30:34.964Z,2.67
2023-03-02T04:33:01.311Z,2.30
2023-03-02T04:35:27.628Z,2.42
2023-03-02T04:37:53.949Z,2.59
2023-03-02T04:40:20.264Z,2.83
2023-03-02T04:42:46.558Z,2.82
2023-03-02T04:45:12.851Z,2.61
2023-03-02T04:47:39.188Z,2.66
2023-03-02T04:50:05.483Z,2.61
2023-03-02T04:52:31.765Z,2.58
2023-03-02T04:54:58.072Z,2.64
2023-03-02T04:57:24.357Z,2.56
2023-03-02T04:59:50.650Z,2.69
2023-03-02T05:02:17.054Z,2.60
2023-03-02T05:04:43.453Z,2.89
2023-03-02T05:07:09.771Z,2.91
2023-03-02T05:09:36.110Z,2.84
2023-03-02T05:12:02.415Z,2.97
2023-03-02T05:14:28.722Z,2.97
2023-03-02T05:16:55.043Z,2.89
2023-03-02T05:19:21.342Z,2.84
2023-03-02T05:21:47.670Z,2.83
2023-03-02T05:24:14.025Z,2.83
2023-03-02T05:26:40.307Z,2.93
2023-03-02T05:29:06.598Z,2.92
2023-03-02T05:31:32.914Z,2.88
2023-03-02T05:33:59.231Z,2.90
2023-03-02T05:36:25.541Z,2.83
2023-03-02T05:38:51.857Z,2.90
2023-03-02T05:41:18.141Z,2.89
2023-03-02T05:43:44.668Z,2.92
2023-03-02T05:46:11.028Z,2.87
2023-03-02T05:48:37.314Z,2.74
2023-03-02T05:51:03.623Z,2.73
2023-03-02T05:53:29.930Z,2.82
2023-03-02T05:55:56.241Z,2.67
2023-03-02T05:58:22.566Z,2.75
2023-03-02T06:00:48.890Z,2.86
2023-03-02T06:03:15.271Z,2.58
2023-03-02T06:05:41.597Z,2.65
2023-03-02T06:08:07.952Z,2.74
2023-03-02T06:10:34.261Z,2.50
2023-03-02T06:13:00.553Z,2.40
2023-03-02T06:15:26.878Z,2.65
2023-03-02T06:17:53.168Z,2.66
2023-03-02T06:20:19.455Z,2.84
2023-03-02T06:22:45.770Z,2.90
2023-03-02T06:25:12.068Z,2.57
2023-03-02T06:27:38.355Z,2.83
2023-03-02T06:30:04.670Z,2.83
2023-03-02T06:32:31.019Z,2.76
2023-03-02T06:34:57.375Z,2.75
2023-03-02T06:37:23.697Z,2.93
2023-03-02T06:39:49.987Z,2.99
2023-03-02T06:42:16.274Z,2.99
2023-03-02T06:44:42.584Z,3.03
2023-03-02T06:47:08.886Z,3.01
2023-03-02T06:49:35.175Z,2.97
2023-03-02T06:52:01.487Z,3.03
2023-03-02T06:54:27.767Z,3.03
2023-03-02T06:56:54.066Z,3.01
2023-03-02T06:59:20.368Z,3.14
2023-03-02T07:01:46.660Z,2.85
2023-03-02T07:04:12.964Z,2.82
2023-03-02T07:06:39.275Z,3.07
2023-03-02T07:09:05.576Z,3.01
2023-03-02T07:11:32.133Z,3.05
2023-03-02T07:13:58.758Z,3.13
2023-03-02T07:16:25.073Z,3.06
2023-03-02T07:18:51.373Z,2.95
2023-03-02T07:21:17.681Z,2.98
2023-03-02T07:23:43.980Z,2.82
2023-03-02T07:26:10.338Z,2.89
2023-03-02T07:28:36.663Z,2.77
2023-03-02T07:31:03.053Z,2.71
2023-03-02T07:33:29.406Z,3.03
2023-03-02T07:35:55.758Z,3.00
2023-03-02T07:38:22.097Z,2.91
2023-03-02T07:40:48.382Z,3.15
2023-03-02T07:43:14.706Z,2.84
2023-03-02T07:45:40.999Z,2.84
2023-03-02T07:48:07.295Z,2.84
2023-03-02T07:50:33.605Z,2.93
2023-03-02T07:53:00.126Z,3.19
2023-03-02T07:55:26.489Z,3.22
2023-03-02T07:57:52.799Z,3.22
2023-03-02T08:00:19.092Z,3.13
2023-03-02T08:02:45.433Z,3.20
2023-03-02T08:05:11.771Z,3.14
2023-03-02T08:07:38.055Z,3.17
2023-03-02T08:10:04.375Z,3.35
2023-03-02T08:12:30.704Z,2.99
2023-03-02T08:14:57.001Z,3.29
2023-03-02T08:17:23.294Z,3.00
2023-03-02T08:19:49.649Z,2.99
2023-03-02T08:22:15.937Z,3.25
2023-03-02T08:24:42.229Z,3.14
2023-03-02T08:27:08.529Z,3.28
2023-03-02T08:29:34.818Z,2.82
2023-03-02T08:32:01.208Z,2.77
2023-03-02T08:34:27.617Z,2.62
2023-03-02T08:36:53.919Z,2.52
2023-03-02T08:39:20.224Z,2.70
2023-03-02T08:41:46.548Z,3.04
2023-03-02T08:44:12.845Z,3.30
2023-03-02T08:46:39.141Z,3.21
2023-03-02T08:49:05.463Z,3.17
2023-03-02T08:51:32.020Z,2.97
2023-03-02T08:53:58.488Z,2.93
2023-03-02T08:56:24.790Z,3.06
2023-03-02T08:58:51.155Z,3.06
2023-03-02T09:01:17.510Z,3.30
2023-03-02T09:03:43.865Z,2.89
2023-03-02T09:06:10.159Z,3.36
2023-03-02T09:08:36.460Z,3.36
2023-03-02T09:11:02.775Z,3.54
2023-03-02T09:13:29.069Z,3.42
2023-03-02T09:15:55.369Z,3.51
2023-03-02T09:18:21.683Z,3.59
2023-03-02T09:20:47.994Z,3.52
2023-03-02T09:23:14.327Z,3.37
2023-03-02T09:25:40.674Z,3.60
2023-03-02T09:28:06.987Z,3.43
2023-03-02T09:30:33.293Z,3.06
2023-03-02T09:32:59.679Z,3.19
2023-03-02T09:35:26.064Z,3.32
2023-03-02T09:37:52.374Z,3.45
2023-03-02T09:40:18.711Z,3.60
2023-03-02T09:42:45.029Z,3.06
2023-03-02T09:45:11.320Z,3.46
2023-03-02T09:47:37.667Z,3.68
2023-03-02T09:50:03.957Z,3.50
2023-03-02T09:52:30.250Z,3.46
2023-03-02T09:54:56.576Z,3.50
2023-03-02T09:57:22.875Z,3.99
2023-03-02T09:59:49.184Z,3.86
2023-03-02T10:02:15.519Z,3.68
2023-03-02T10:04:41.873Z,3.81
2023-03-02T10:07:08.202Z,4.39
2023-03-02T10:09:34.499Z,3.66
2023-03-02T10:12:00.825Z,3.99
2023-03-02T10:14:27.187Z,4.47
2023-03-02T10:16:53.510Z,4.42
2023-03-02T10:19:19.804Z,4.48
2023-03-02T10:21:46.147Z,4.28
2023-03-02T10:24:12.483Z,3.79
2023-03-02T10:26:38.785Z,3.81
2023-03-02T10:29:05.064Z,4.46
2023-03-02T10:31:31.410Z,4.38
2023-03-02T10:33:57.699Z,4.45
2023-03-02T10:36:24.012Z,4.50
2023-03-02T10:38:50.331Z,4.53
2023-03-02T10:41:16.615Z,4.39
2023-03-02T10:43:42.924Z,4.43
2023-03-02T10:46:09.326Z,4.84
2023-03-02T10:48:40.913Z,4.54
2023-03-02T10:51:07.489Z,4.72
2023-03-02T10:53:33.806Z,4.14
2023-03-02T10:56:00.251Z,4.52
2023-03-02T10:58:26.551Z,3.98
2023-03-02T11:00:52.861Z,4.20
2023-03-02T11:03:19.165Z,4.89
2023-03-02T11:05:45.470Z,4.95
2023-03-02T11:08:11.961Z,4.47
2023-03-02T11:10:38.281Z,4.76
2023-03-02T11:13:04.582Z,4.79
2023-03-02T11:15:30.886Z,5.15
2023-03-02T11:17:57.165Z,5.17
2023-03-02T11:20:23.449Z,5.16
2023-03-02T11:22:49.832Z,5.15
2023-03-02T11:25:16.158Z,5.10
2023-03-02T11:27:42.510Z,5.17
2023-03-02T11:30:08.925Z,5.11
2023-03-02T11:32:35.406Z,5.47
2023-03-02T11:35:01.710Z,5.71
2023-03-02T11:37:28.160Z,5.54
2023-03-02T11:39:55.729Z,5.04
2023-03-02T11:42:22.357Z,5.15
2023-03-02T11:44:48.702Z,5.53
2023-03-02T11:47:15.063Z,5.65
2023-03-02T11:49:41.399Z,5.56
2023-03-02T11:52:07.736Z,5.41
2023-03-02T11:54:34.059Z,5.56
2023-03-02T11:57:00.376Z,5.78
2023-03-02T11:59:28.521Z,5.70
2023-03-02T12:01:55.374Z,5.12
2023-03-02T12:04:21.786Z,6.01
2023-03-02T12:06:48.091Z,5.74
2023-03-02T12:09:14.416Z,6.25
2023-03-02T12:11:40.750Z,5.97
2023-03-02T12:14:07.083Z,6.24
2023-03-02T12:16:33.731Z,5.47
2023-03-02T12:19:00.272Z,5.58
2023-03-02T12:21:26.586Z,5.80
2023-03-02T12:23:52.873Z,4.90
2023-03-02T12:26:19.205Z,5.99
2023-03-02T12:28:45.513Z,6.26
2023-03-02T12:31:11.854Z,6.23
2023-03-02T12:33:38.210Z,6.68
2023-03-02T12:36:04.547Z,6.63
2023-03-02T12:38:31.109Z,6.36
2023-03-02T12:40:57.497Z,6.01
2023-03-02T12:43:24.909Z,6.46
2023-03-02T12:45:51.217Z,6.01
2023-03-02T12:48:17.608Z,6.46
2023-03-02T12:50:43.935Z,5.69
2023-03-02T12:53:10.216Z,6.32
2023-03-02T12:55:36.546Z,6.32
2023-03-02T12:58:02.907Z,5.18
2023-03-02T13:00:29.223Z,6.17
2023-03-02T13:02:55.592Z,6.11
2023-03-02T13:05:22.082Z,5.89
2023-03-02T13:07:48.397Z,5.99
2023-03-02T13:10:14.793Z,5.91
2023-03-02T13:12:41.109Z,6.10
2023-03-02T13:15:07.396Z,5.53
2023-03-02T13:17:33.690Z,6.21
2023-03-02T13:20:00.014Z,5.94
2023-03-02T13:22:26.324Z,5.85
2023-03-02T13:24:52.622Z,6.00
2023-03-02T13:27:18.994Z,5.73
2023-03-02T13:29:45.359Z,5.82
2023-03-02T13:32:11.678Z,5.67
2023-03-02T13:34:37.990Z,5.78
2023-03-02T13:37:04.273Z,5.93
2023-03-02T13:39:30.575Z,6.18
2023-03-02T13:41:56.899Z,5.28
2023-03-02T13:44:23.203Z,5.08
2023-03-02T13:46:49.736Z,5.78
2023-03-02T13:49:16.167Z,6.20
2023-03-02T13:51:42.502Z,6.12
2023-03-02T13:54:08.856Z,6.00
2023-03-02T13:56:35.278Z,5.58
2023-03-02T13:59:01.618Z,5.95
2023-03-02T14:01:27.967Z,6.19
2023-03-02T14:03:56.429Z,6.04
2023-03-02T14:06:23.817Z,6.07
2023-03-02T14:08:50.201Z,6.07
2023-03-02T14:11:16.529Z,5.92
2023-03-02T14:13:42.829Z,5.80
2023-03-02T14:16:09.197Z,5.60
2023-03-02T14:18:35.541Z,5.96
2023-03-02T14:21:01.893Z,6.01
2023-03-02T14:23:28.311Z,6.05
2023-03-02T14:25:54.645Z,5.62
2023-03-02T14:28:20.941Z,6.08
2023-03-02T14:30:47.291Z,5.73
2023-03-02T14:33:13.613Z,6.14
2023-03-02T14:35:39.972Z,6.25
2023-03-02T14:38:06.291Z,5.93
2023-03-02T14:40:32.897Z,5.59
2023-03-02T14:42:59.263Z,5.85
2023-03-02T14:45:25.588Z,5.73
2023-03-02T14:47:52.977Z,6.04
2023-03-02T14:50:19.276Z,6.27
2023-03-02T14:52:45.570Z,6.08
2023-03-02T14:55:11.953Z,6.48
2023-03-02T14:57:38.271Z,6.53
2023-03-02T15:00:04.577Z,6.68
2023-03-02T15:02:30.955Z,6.93
2023-03-02T15:04:57.690Z,7.11
2023-03-02T15:07:24.120Z,6.22
2023-03-02T15:09:50.465Z,5.52
2023-03-02T15:12:16.775Z,5.30
2023-03-02T15:14:43.054Z,5.61
2023-03-02T15:17:09.375Z,5.66
2023-03-02T15:19:35.679Z,5.46
2023-03-02T15:22:01.979Z,5.34
2023-03-02T15:24:28.429Z,5.26
2023-03-02T15:26:54.719Z,5.19
2023-03-02T15:29:21.014Z,5.28
2023-03-02T15:31:47.336Z,5.38
2023-03-02T15:34:13.640Z,5.71
2023-03-02T15:36:39.932Z,5.16
2023-03-02T15:39:06.261Z,5.21
2023-03-02T15:41:32.846Z,5.32
2023-03-02T15:43:59.302Z,5.59
2023-03-02T15:46:25.714Z,5.10
2023-03-02T15:48:52.061Z,5.02
2023-03-02T15:51:18.396Z,5.22
2023-03-02T15:53:44.712Z,5.29
2023-03-02T15:56:11.024Z,5.37
2023-03-02T15:58:37.313Z,5.35
2023-03-02T16:01:03.695Z,5.34
2023-03-02T16:03:29.989Z,5.45
2023-03-02T16:05:56.280Z,5.57
2023-03-02T16:08:22.605Z,5.69
2023-03-02T16:10:48.939Z,5.67
2023-03-02T16:13:15.234Z,5.82
2023-03-02T16:15:41.699Z,5.56
2023-03-02T16:18:07.993Z,5.62
2023-03-02T16:20:34.296Z,5.63
2023-03-02T16:23:00.603Z,5.51
2023-03-02T16:25:26.895Z,5.68
2023-03-02T16:27:53.201Z,5.87
2023-03-02T16:30:22.729Z,5.84
2023-03-02T16:32:49.516Z,5.99
2023-03-02T16:35:15.842Z,5.84
2023-03-02T16:37:42.179Z,5.78
2023-03-02T16:40:08.565Z,5.87
2023-03-02T16:42:34.902Z,5.78
2023-03-02T16:45:01.243Z,5.57
2023-03-02T16:47:27.547Z,5.65
2023-03-02T16:49:53.833Z,6.03
2023-03-02T16:52:20.192Z,6.06
2023-03-02T16:54:46.540Z,6.14
2023-03-02T16:57:12.844Z,6.07
2023-03-02T16:59:39.141Z,5.97
2023-03-02T17:02:05.427Z,6.05
2023-03-02T17:04:31.736Z,5.83
2023-03-02T17:07:00.828Z,5.76
2023-03-02T17:09:27.379Z,5.78
2023-03-02T17:11:53.680Z,5.60
2023-03-02T17:14:19.994Z,5.51
2023-03-02T17:16:46.307Z,5.49
2023-03-02T17:19:12.601Z,5.20
2023-03-02T17:21:38.927Z,5.22
2023-03-02T17:24:05.218Z,5.35
2023-03-02T17:26:31.510Z,5.12
2023-03-02T17:28:57.818Z,5.54
2023-03-02T17:31:24.220Z,5.46
2023-03-02T17:33:50.529Z,5.39
2023-03-02T17:36:16.828Z,5.15
2023-03-02T17:38:43.136Z,5.42
2023-03-02T17:41:09.429Z,5.37
2023-03-02T17:43:35.756Z,5.45
2023-03-02T17:46:02.112Z,5.38
2023-03-02T17:48:28.430Z,5.34
2023-03-02T17:50:54.742Z,5.44
2023-03-02T17:53:21.034Z,5.36
2023-03-02T17:55:47.332Z,5.40
2023-03-02T17:58:13.744Z,5.42
2023-03-02T18:00:40.057Z,5.46
2023-03-02T18:03:06.390Z,5.35
2023-03-02T18:05:32.689Z,5.09
2023-03-02T18:07:58.973Z,4.91
2023-03-02T18:10:25.266Z,4.93
2023-03-02T18:12:54.079Z,5.19
2023-03-02T18:15:20.680Z,4.98
2023-03-02T18:17:47.055Z,5.01
2023-03-02T18:20:13.365Z,4.98
2023-03-02T18:22:39.668Z,5.15
2023-03-02T18:25:05.968Z,5.10
2023-03-02T18:27:32.321Z,5.17
2023-03-02T18:29:58.651Z,5.19
2023-03-02T18:32:24.994Z,5.26
2023-03-02T18:34:51.334Z,5.18
2023-03-02T18:37:17.631Z,5.20
2023-03-02T18:39:43.930Z,5.11
2023-03-02T18:42:12.482Z,5.03
2023-03-02T18:44:38.966Z,5.03
2023-03-02T18:47:05.289Z,5.09
2023-03-02T18:49:31.605Z,5.07
2023-03-02T18:51:57.896Z,5.13
2023-03-02T18:54:24.192Z,5.01
2023-03-02T18:56:50.496Z,5.10
2023-03-02T18:59:16.793Z,5.08
2023-03-02T19:01:43.126Z,4.98
2023-03-02T19:04:09.444Z,4.94
2023-03-02T19:06:35.736Z,5.03
2023-03-02T19:09:02.038Z,5.11
2023-03-02T19:11:28.355Z,5.07
2023-03-02T19:13:54.630Z,5.01
2023-03-02T19:16:20.983Z,5.05
2023-03-02T19:18:47.411Z,5.09
2023-03-02T19:21:13.695Z,4.94
2023-03-02T19:23:39.986Z,5.06
2023-03-02T19:26:06.314Z,4.92
2023-03-02T19:28:32.601Z,4.94
2023-03-02T19:30:58.894Z,4.96
2023-03-02T19:33:25.206Z,4.89
2023-03-02T19:35:51.577Z,4.17
2023-03-02T19:38:17.911Z,3.62
2023-03-02T19:40:44.356Z,3.50
2023-03-02T19:43:10.683Z,3.48
2023-03-02T19:45:37.002Z,3.55
2023-03-02T19:48:03.325Z,3.53
2023-03-02T19:50:29.653Z,3.54
2023-03-02T19:52:55.957Z,3.54
2023-03-02T19:55:22.282Z,3.47
2023-03-02T19:57:48.590Z,3.40
2023-03-02T20:00:14.893Z,3.51
2023-03-02T20:02:41.202Z,3.60
2023-03-02T20:05:07.506Z,3.68
2023-03-02T20:07:33.826Z,3.57
2023-03-02T20:10:00.153Z,3.50
2023-03-02T20:12:26.461Z,3.54
2023-03-02T20:14:52.784Z,3.64
2023-03-02T20:17:19.111Z,3.60
2023-03-02T20:19:45.405Z,3.49
2023-03-02T20:22:11.691Z,3.37
2023-03-02T20:24:38.040Z,3.34
2023-03-02T20:27:04.340Z,3.46
2023-03-02T20:29:30.640Z,3.33
2023-03-02T20:31:56.968Z,3.58
2023-03-02T20:34:23.285Z,3.56
2023-03-02T20:36:49.578Z,3.67
2023-03-02T20:39:15.943Z,3.32
2023-03-02T20:41:42.240Z,3.30
2023-03-02T20:44:08.541Z,3.69
2023-03-02T20:46:34.845Z,3.99
2023-03-02T20:49:01.122Z,4.03
2023-03-02T20:51:27.405Z,3.62
2023-03-02T20:53:53.739Z,3.18
2023-03-02T20:56:20.043Z,3.14
2023-03-02T20:58:46.331Z,3.47
2023-03-02T21:01:12.698Z,3.72
2023-03-02T21:03:39.017Z,3.78
2023-03-02T21:06:05.315Z,3.72
2023-03-02T21:08:34.007Z,3.60
2023-03-02T21:11:00.415Z,3.54
2023-03-02T21:13:26.811Z,3.65
2023-03-02T21:15:53.316Z,3.40
2023-03-02T21:18:19.623Z,3.19
2023-03-02T21:20:45.936Z,3.26
2023-03-02T21:23:12.246Z,3.28
2023-03-02T21:25:39.932Z,3.34
2023-03-02T21:28:08.177Z,3.24
2023-03-02T21:30:34.522Z,2.97
2023-03-02T21:33:00.824Z,3.08
2023-03-02T21:35:27.156Z,3.49
2023-03-02T21:37:53.518Z,3.70
2023-03-02T21:40:19.855Z,3.41
2023-03-02T21:42:46.203Z,3.41
2023-03-02T21:45:12.514Z,3.24
2023-03-02T21:47:38.812Z,2.97
2023-03-02T21:50:05.123Z,3.38
2023-03-02T21:52:31.433Z,3.13
2023-03-02T21:54:57.727Z,2.99
2023-03-02T21:57:24.019Z,2.92
2023-03-02T21:59:50.353Z,2.66
2023-03-02T22:02:16.644Z,2.68
2023-03-02T22:04:42.947Z,3.01
2023-03-02T22:07:09.265Z,3.13
2023-03-02T22:09:35.578Z,3.28
2023-03-02T22:12:01.913Z,3.38
2023-03-02T22:14:28.214Z,3.31
2023-03-02T22:16:54.515Z,3.59
2023-03-02T22:19:20.809Z,3.42
2023-03-02T22:21:47.114Z,3.13
2023-03-02T22:24:13.431Z,3.42
2023-03-02T22:26:39.732Z,3.46
2023-03-02T22:29:06.038Z,3.29
2023-03-02T22:31:32.420Z,3.36
2023-03-02T22:33:58.735Z,3.45
2023-03-02T22:36:25.080Z,3.45
2023-03-02T22:38:51.372Z,3.32
2023-03-02T22:41:17.671Z,3.35
2023-03-02T22:43:43.965Z,3.43
2023-03-02T22:46:10.245Z,3.46
2023-03-02T22:48:36.541Z,3.32
2023-03-02T22:51:02.870Z,3.32
2023-03-02T22:53:29.160Z,3.23
2023-03-02T22:55:55.457Z,3.20
2023-03-02T22:58:21.769Z,3.20
2023-03-02T23:00:48.127Z,3.01
2023-03-02T23:03:17.193Z,3.12
2023-03-02T23:05:43.780Z,3.15
2023-03-02T23:08:10.068Z,3.14
2023-03-02T23:10:36.360Z,3.23
2023-03-02T23:13:03.494Z,3.28
2023-03-02T23:15:29.795Z,3.23
2023-03-02T23:17:56.086Z,3.20
2023-03-02T23:20:22.391Z,3.09
2023-03-02T23:22:48.672Z,3.05
2023-03-02T23:25:14.965Z,3.08
2023-03-02T23:27:41.268Z,3.01
2023-03-02T23:30:07.571Z,2.95
2023-03-02T23:32:33.889Z,3.04
2023-03-02T23:35:00.212Z,3.00
2023-03-02T23:37:26.502Z,3.00
2023-03-02T23:39:52.791Z,3.00
2023-03-02T23:42:19.126Z,3.01
2023-03-02T23:44:45.438Z,2.86
2023-03-02T23:47:11.717Z,2.85
2023-03-02T23:49:38.020Z,2.83
2023-03-02T23:52:04.331Z,2.87
2023-03-02T23:54:30.664Z,2.95
2023-03-02T23:56:56.971Z,2.96
2023-03-02T23:59:23.295Z,2.89
